Time;durP1;ratioP1;P1;durP2;ratioP2;P2;SDS_P1;SDS_P2;PMS_P1;PMS_P2;Temp;Humidity;BMP_temperature;BMP_pressure;BME280_temperature;BME280_humidity;BME280_pressure;Samples;Min_cycle;Max_cycle;Signal;HPM_P1;HPM_P2
2023/04/18 00:02:00;;;;;;;14.17;11.27;;;7.20;99.90;;;;;;5030675;28;20072;-81
2023/04/18 00:04:26;;;;;;;14.43;11.53;;;7.10;99.90;;;;;;5013651;28;20523;-80
2023/04/18 00:06:52;;;;;;;16.10;12.50;;;7.10;99.90;;;;;;5008483;28;20036;-81
2023/04/18 00:09:18;;;;;;;15.10;11.80;;;7.10;99.90;;;;;;4992988;28;20057;-81
2023/04/18 00:11:44;;;;;;;16.77;12.10;;;7.10;99.90;;;;;;5018784;28;20488;-81
2023/04/18 00:14:10;;;;;;;15.27;11.27;;;7.10;99.90;;;;;;5013699;28;20049;-81
2023/04/18 00:16:36;;;;;;;15.87;12.43;;;7.00;99.90;;;;;;5030316;28;20033;-81
2023/04/18 00:19:04;;;;;;;15.50;10.87;;;7.00;99.90;;;;;;5008698;28;20477;-81
2023/04/18 00:21:31;;;;;;;16.80;11.83;;;7.00;99.90;;;;;;5006359;28;20041;-80
2023/04/18 00:23:57;;;;;;;18.83;12.03;;;7.00;99.90;;;;;;5030100;28;20095;-81
2023/04/18 00:26:23;;;;;;;16.27;11.20;;;7.00;99.90;;;;;;5030286;28;20132;-81
2023/04/18 00:28:49;;;;;;;14.67;10.73;;;6.90;99.90;;;;;;5012952;28;20049;-81
2023/04/18 00:31:15;;;;;;;15.77;11.07;;;6.90;99.90;;;;;;5028441;28;20050;-81
2023/04/18 00:33:41;;;;;;;14.73;11.60;;;6.90;99.90;;;;;;5032923;28;20042;-81
2023/04/18 00:36:07;;;;;;;13.87;10.57;;;6.90;99.90;;;;;;5013732;28;20072;-81
2023/04/18 00:38:32;;;;;;;14.53;11.23;;;6.90;99.90;;;;;;4990094;28;20132;-81
2023/04/18 00:40:58;;;;;;;16.97;11.97;;;6.90;99.90;;;;;;5023717;28;20052;-80
2023/04/18 00:43:24;;;;;;;15.47;11.40;;;6.80;99.90;;;;;;5016896;28;20562;-81
2023/04/18 00:45:49;;;;;;;15.50;11.73;;;6.80;99.90;;;;;;5016657;28;20412;-81
2023/04/18 00:48:16;;;;;;;14.80;11.97;;;6.70;99.90;;;;;;5015382;28;20041;-81
2023/04/18 00:50:42;;;;;;;18.27;12.43;;;6.70;99.90;;;;;;5023257;28;20389;-81
2023/04/18 00:53:09;;;;;;;15.30;11.80;;;6.60;99.90;;;;;;5030405;28;20049;-81
2023/04/18 00:55:36;;;;;;;15.37;11.83;;;6.50;99.90;;;;;;5032695;28;20073;-81
2023/04/18 00:58:02;;;;;;;15.60;12.43;;;6.50;99.90;;;;;;5033065;28;20091;-81
2023/04/18 01:00:28;;;;;;;15.47;12.07;;;6.40;99.90;;;;;;5014948;28;20046;-81
2023/04/18 01:02:54;;;;;;;17.10;13.00;;;6.40;99.90;;;;;;5033385;28;20041;-81
2023/04/18 01:05:23;;;;;;;16.33;12.87;;;6.30;99.90;;;;;;4990423;28;20119;-81
2023/04/18 01:07:49;;;;;;;16.07;12.43;;;6.30;99.90;;;;;;5000186;28;20493;-81
2023/04/18 01:10:15;;;;;;;16.20;12.50;;;6.30;99.90;;;;;;5010312;28;20060;-81
2023/04/18 01:12:41;;;;;;;18.27;12.53;;;6.30;99.90;;;;;;5015971;28;20042;-80
2023/04/18 01:15:07;;;;;;;17.93;12.40;;;6.20;99.90;;;;;;5013618;28;20107;-81
2023/04/18 01:17:34;;;;;;;17.17;13.03;;;6.20;99.90;;;;;;5014805;28;20119;-80
2023/04/18 01:20:01;;;;;;;17.57;12.37;;;6.20;99.90;;;;;;5010332;28;20049;-81
2023/04/18 01:22:31;;;;;;;18.53;12.93;;;6.10;99.90;;;;;;5013309;28;20386;-81
2023/04/18 01:24:57;;;;;;;19.13;13.13;;;6.20;99.90;;;;;;4992867;28;20037;-80
2023/04/18 01:27:23;;;;;;;16.80;12.37;;;6.10;99.90;;;;;;4998556;28;20061;-81
2023/04/18 01:29:48;;;;;;;15.20;12.10;;;6.10;99.90;;;;;;5028290;28;20486;-81
2023/04/18 01:32:16;;;;;;;19.83;13.37;;;6.10;99.90;;;;;;5027407;28;20091;-81
2023/04/18 01:34:42;;;;;;;17.07;12.43;;;6.10;99.90;;;;;;5031955;28;20046;-81
2023/04/18 01:37:08;;;;;;;14.93;12.33;;;6.10;99.90;;;;;;5027719;28;20036;-80
2023/04/18 01:39:33;;;;;;;14.07;11.77;;;6.10;99.90;;;;;;5013807;28;20042;-82
2023/04/18 01:42:00;;;;;;;16.77;12.67;;;6.10;99.90;;;;;;5011411;28;20046;-80
2023/04/18 01:44:26;;;;;;;15.60;12.67;;;6.10;99.90;;;;;;5032056;28;20041;-81
2023/04/18 01:46:52;;;;;;;17.40;12.70;;;6.10;99.90;;;;;;5013509;28;20663;-82
2023/04/18 01:49:17;;;;;;;16.97;12.93;;;6.10;99.90;;;;;;5006329;28;20064;-81
2023/04/18 01:51:43;;;;;;;19.03;13.33;;;6.10;99.90;;;;;;4998437;28;20045;-80
2023/04/18 01:54:09;;;;;;;17.43;12.83;;;6.10;99.90;;;;;;5007090;28;20053;-80
2023/04/18 01:56:36;;;;;;;17.90;13.47;;;6.10;99.90;;;;;;5015574;28;20535;-80
2023/04/18 01:59:01;;;;;;;18.07;13.43;;;6.10;99.90;;;;;;5015331;28;20050;-81
2023/04/18 02:01:27;;;;;;;18.80;13.50;;;6.10;99.90;;;;;;5029852;28;20072;-80
2023/04/18 02:03:53;;;;;;;20.27;13.43;;;6.10;99.90;;;;;;5031743;28;20067;-80
2023/04/18 02:06:18;;;;;;;19.40;13.63;;;6.10;99.90;;;;;;5013670;28;20041;-81
2023/04/18 02:08:44;;;;;;;18.07;13.03;;;6.10;99.90;;;;;;5018663;28;20137;-81
2023/04/18 02:11:09;;;;;;;19.37;13.67;;;6.10;99.90;;;;;;5015023;28;20079;-81
2023/04/18 02:13:35;;;;;;;18.30;13.23;;;6.10;99.90;;;;;;5014285;28;20129;-80
2023/04/18 02:16:01;;;;;;;17.63;13.40;;;6.20;99.90;;;;;;5030630;28;20033;-80
2023/04/18 02:18:26;;;;;;;18.20;13.10;;;6.20;99.90;;;;;;5008460;28;20041;-80
2023/04/18 02:20:52;;;;;;;19.47;13.30;;;6.10;99.90;;;;;;5008985;28;20037;-81
2023/04/18 02:23:18;;;;;;;18.57;13.80;;;6.10;99.90;;;;;;5031280;28;20045;-81
2023/04/18 02:25:44;;;;;;;18.53;13.97;;;6.10;99.90;;;;;;5031631;28;20045;-82
2023/04/18 02:28:09;;;;;;;16.80;13.73;;;6.20;99.90;;;;;;5014840;28;20052;-81
2023/04/18 02:30:35;;;;;;;19.33;14.27;;;6.20;99.90;;;;;;4999082;28;20394;-81
2023/04/18 02:33:01;;;;;;;20.00;13.90;;;6.20;99.90;;;;;;5002068;28;20483;-81
2023/04/18 02:35:28;;;;;;;17.87;13.80;;;6.20;99.90;;;;;;4998701;28;20037;-80
2023/04/18 02:37:53;;;;;;;18.97;12.87;;;6.20;99.90;;;;;;5030985;28;20075;-79
2023/04/18 02:40:19;;;;;;;22.23;14.30;;;6.20;99.90;;;;;;5010982;28;20041;-81
2023/04/18 02:42:45;;;;;;;21.20;14.17;;;6.20;99.90;;;;;;5030927;28;20044;-81
2023/04/18 02:45:11;;;;;;;20.50;14.30;;;6.20;99.90;;;;;;5025931;28;20126;-81
2023/04/18 02:47:38;;;;;;;19.97;13.33;;;6.20;99.90;;;;;;5003912;28;20077;-80
2023/04/18 02:50:04;;;;;;;19.03;13.40;;;6.20;99.90;;;;;;5013190;28;20112;-81
2023/04/18 02:52:30;;;;;;;18.70;12.73;;;6.20;99.90;;;;;;4994205;28;20049;-81
2023/04/18 02:54:56;;;;;;;21.23;14.67;;;6.30;99.90;;;;;;5000543;28;20405;-81
2023/04/18 02:57:22;;;;;;;18.90;13.23;;;6.20;99.90;;;;;;5030973;28;20053;-82
2023/04/18 02:59:47;;;;;;;20.43;13.50;;;6.20;99.90;;;;;;5031097;28;20064;-81
2023/04/18 03:02:13;;;;;;;17.87;13.93;;;6.30;99.90;;;;;;5009651;28;20041;-81
2023/04/18 03:04:39;;;;;;;21.00;13.87;;;6.30;99.90;;;;;;5028135;28;20034;-81
2023/04/18 03:07:05;;;;;;;22.33;14.00;;;6.30;99.90;;;;;;5003321;28;20037;-81
2023/04/18 03:09:30;;;;;;;19.07;13.70;;;6.30;99.90;;;;;;4997840;28;20128;-81
2023/04/18 03:11:56;;;;;;;21.53;14.23;;;6.30;99.90;;;;;;5030098;28;20030;-80
2023/04/18 03:14:22;;;;;;;19.63;14.20;;;6.40;99.90;;;;;;5030395;28;20044;-81
2023/04/18 03:16:47;;;;;;;20.47;13.87;;;6.40;99.90;;;;;;5011275;28;20041;-81
2023/04/18 03:19:13;;;;;;;18.30;13.13;;;6.40;99.90;;;;;;5030800;28;20393;-80
2023/04/18 03:21:39;;;;;;;22.47;13.63;;;6.40;99.90;;;;;;5018658;28;20065;-81
2023/04/18 03:24:05;;;;;;;19.10;13.30;;;6.40;99.90;;;;;;4994601;28;20038;-81
2023/04/18 03:26:30;;;;;;;18.03;12.83;;;6.50;99.90;;;;;;5019766;28;20042;-80
2023/04/18 03:28:56;;;;;;;17.93;11.90;;;6.50;99.90;;;;;;5000359;28;20046;-81
2023/04/18 03:31:22;;;;;;;18.20;12.80;;;6.50;99.90;;;;;;5020628;28;20057;-81
2023/04/18 03:33:48;;;;;;;16.80;12.50;;;6.60;99.90;;;;;;5013973;28;20085;-81
2023/04/18 03:36:17;;;;;;;18.30;12.87;;;6.60;99.90;;;;;;5030460;28;20029;-81
2023/04/18 03:38:44;;;;;;;18.37;13.30;;;6.70;99.90;;;;;;5027619;28;20034;-81
2023/04/18 03:41:09;;;;;;;17.90;12.53;;;6.70;99.90;;;;;;5022727;28;20045;-81
2023/04/18 03:43:35;;;;;;;19.13;12.80;;;6.70;99.90;;;;;;5012586;28;20048;-81
2023/04/18 03:46:01;;;;;;;17.60;12.63;;;6.70;99.90;;;;;;5021858;28;20413;-81
2023/04/18 03:48:27;;;;;;;20.17;13.50;;;6.70;99.90;;;;;;5025184;28;20050;-80
2023/04/18 03:50:53;;;;;;;17.83;12.73;;;6.70;99.90;;;;;;5022049;28;20509;-81
2023/04/18 03:53:19;;;;;;;19.83;13.83;;;6.70;99.90;;;;;;5030565;28;20141;-81
2023/04/18 03:55:45;;;;;;;17.30;13.20;;;6.70;99.90;;;;;;5030018;28;20138;-80
2023/04/18 03:58:11;;;;;;;16.87;12.60;;;6.70;99.90;;;;;;5013427;28;20060;-81
2023/04/18 04:00:36;;;;;;;20.83;13.03;;;6.60;99.90;;;;;;5005820;28;20049;-81
2023/04/18 04:03:02;;;;;;;19.20;13.10;;;6.60;99.90;;;;;;5007193;28;20045;-81
2023/04/18 04:05:28;;;;;;;18.10;12.73;;;6.60;99.90;;;;;;5019084;28;20389;-80
2023/04/18 04:07:54;;;;;;;17.30;12.13;;;6.60;99.90;;;;;;5026006;28;20069;-81
2023/04/18 04:10:19;;;;;;;18.57;13.30;;;6.60;99.90;;;;;;5000588;28;20042;-80
2023/04/18 04:12:45;;;;;;;19.73;13.10;;;6.60;99.90;;;;;;4998817;28;20054;-81
2023/04/18 04:15:11;;;;;;;19.57;13.10;;;6.60;99.90;;;;;;5014353;28;20508;-81
2023/04/18 04:17:37;;;;;;;18.10;12.63;;;6.60;99.90;;;;;;4997432;28;20131;-81
2023/04/18 04:20:04;;;;;;;16.70;12.27;;;6.60;99.90;;;;;;5033565;28;20037;-81
2023/04/18 04:22:30;;;;;;;15.10;12.23;;;6.60;99.90;;;;;;5016532;28;20115;-80
2023/04/18 04:24:56;;;;;;;18.07;13.07;;;6.60;99.90;;;;;;5004335;28;20497;-81
2023/04/18 04:27:23;;;;;;;21.23;13.57;;;6.70;99.90;;;;;;5032271;28;20122;-81
2023/04/18 04:29:51;;;;;;;21.53;12.67;;;6.60;99.90;;;;;;5031134;28;20054;-80
2023/04/18 04:32:17;;;;;;;18.60;13.27;;;6.60;99.90;;;;;;4998033;28;20045;-80
2023/04/18 04:34:45;;;;;;;18.87;12.87;;;6.60;99.90;;;;;;5028063;28;20116;-81
2023/04/18 04:37:12;;;;;;;17.30;11.90;;;6.60;99.90;;;;;;5016493;28;20040;-81
2023/04/18 04:39:38;;;;;;;19.00;13.10;;;6.70;99.90;;;;;;5010336;28;20088;-80
2023/04/18 04:42:04;;;;;;;16.63;12.20;;;6.70;99.90;;;;;;5024833;28;20080;-81
2023/04/18 04:44:30;;;;;;;17.77;12.20;;;6.70;99.90;;;;;;5002903;28;20409;-81
2023/04/18 04:46:56;;;;;;;18.27;12.97;;;6.70;99.90;;;;;;5023352;28;20049;-80
2023/04/18 04:49:22;;;;;;;18.03;13.27;;;6.70;99.90;;;;;;5013322;28;20129;-81
2023/04/18 04:51:48;;;;;;;17.53;12.60;;;6.70;99.90;;;;;;5003288;28;20120;-80
2023/04/18 04:54:14;;;;;;;14.93;11.83;;;6.70;99.90;;;;;;5016898;28;20541;-80
2023/04/18 04:56:39;;;;;;;16.77;12.50;;;6.80;99.90;;;;;;4994781;28;20045;-81
2023/04/18 04:59:06;;;;;;;19.27;12.67;;;6.80;99.90;;;;;;5027513;28;20034;-81
2023/04/18 05:01:32;;;;;;;17.40;12.30;;;6.80;99.90;;;;;;5032481;28;20048;-80
2023/04/18 05:03:58;;;;;;;14.60;11.47;;;6.80;99.90;;;;;;5033056;28;20045;-80
2023/04/18 05:06:24;;;;;;;17.43;12.70;;;6.80;99.90;;;;;;5019144;28;20514;-81
2023/04/18 05:08:50;;;;;;;17.37;12.13;;;6.80;99.90;;;;;;5016509;28;20049;-81
2023/04/18 05:11:16;;;;;;;17.50;12.83;;;6.80;99.90;;;;;;5020624;28;20091;-81
2023/04/18 05:13:42;;;;;;;16.13;11.73;;;6.80;99.90;;;;;;5023179;28;20444;-80
2023/04/18 05:16:08;;;;;;;17.77;12.20;;;6.80;99.90;;;;;;5020267;28;20038;-80
2023/04/18 05:18:37;;;;;;;17.40;12.30;;;6.90;99.90;;;;;;5029795;28;20033;-79
2023/04/18 05:21:04;;;;;;;16.27;12.20;;;6.80;99.90;;;;;;5008080;28;20037;-79
2023/04/18 05:23:30;;;;;;;20.47;13.43;;;6.80;99.90;;;;;;5009819;28;20046;-79
2023/04/18 05:25:56;;;;;;;17.47;13.00;;;6.80;99.90;;;;;;4996521;28;20049;-80
2023/04/18 05:28:25;;;;;;;17.83;13.40;;;6.90;99.90;;;;;;5012908;28;20045;-80
2023/04/18 05:30:50;;;;;;;17.40;12.80;;;6.90;99.90;;;;;;5015317;28;20187;-80
2023/04/18 05:33:16;;;;;;;18.83;12.57;;;6.90;99.90;;;;;;5030584;28;20124;-80
2023/04/18 05:35:42;;;;;;;17.43;13.03;;;6.90;99.90;;;;;;5020575;28;20416;-80
2023/04/18 05:38:07;;;;;;;18.57;13.13;;;6.90;99.90;;;;;;5015629;28;20053;-80
2023/04/18 05:40:33;;;;;;;18.73;12.60;;;6.90;99.90;;;;;;5026570;28;20041;-79
2023/04/18 05:42:59;;;;;;;18.27;13.33;;;7.00;99.90;;;;;;4996882;28;20046;-80
2023/04/18 05:45:25;;;;;;;18.03;13.97;;;7.00;99.90;;;;;;5002713;28;20042;-80
2023/04/18 05:47:52;;;;;;;19.00;13.33;;;7.00;99.90;;;;;;5020448;28;20542;-80
2023/04/18 05:50:18;;;;;;;20.30;13.67;;;7.00;99.90;;;;;;5003461;28;20042;-80
2023/04/18 05:52:44;;;;;;;18.50;13.73;;;7.00;99.90;;;;;;5010767;28;20038;-80
2023/04/18 05:55:10;;;;;;;17.70;12.73;;;7.00;99.90;;;;;;5023148;28;20049;-80
2023/04/18 05:57:35;;;;;;;17.30;12.87;;;7.10;99.90;;;;;;5032002;28;20049;-80
2023/04/18 06:00:02;;;;;;;18.00;13.10;;;7.10;99.90;;;;;;5020470;28;20129;-80
2023/04/18 06:02:27;;;;;;;20.67;13.33;;;7.10;99.90;;;;;;5032238;28;20041;-80
2023/04/18 06:04:53;;;;;;;18.13;12.93;;;7.10;99.90;;;;;;5031929;28;20056;-80
2023/04/18 06:07:20;;;;;;;21.00;13.97;;;7.10;99.90;;;;;;5012987;28;20305;-80
2023/04/18 06:09:45;;;;;;;19.10;13.63;;;7.20;99.90;;;;;;4976034;28;20429;-80
2023/04/18 06:12:11;;;;;;;18.67;14.13;;;7.20;99.90;;;;;;4996003;28;20041;-80
2023/04/18 06:14:37;;;;;;;20.40;13.67;;;7.20;99.90;;;;;;5010849;28;20121;-80
2023/04/18 06:17:02;;;;;;;20.53;13.77;;;7.30;99.90;;;;;;5006820;28;20029;-81
2023/04/18 06:19:28;;;;;;;19.20;13.37;;;7.30;99.90;;;;;;5023381;28;20042;-81
2023/04/18 06:21:54;;;;;;;19.10;14.00;;;7.30;99.90;;;;;;5006930;28;20034;-80
2023/04/18 06:24:20;;;;;;;20.17;13.53;;;7.30;99.90;;;;;;5011866;28;20056;-80
2023/04/18 06:26:46;;;;;;;17.60;12.97;;;7.40;99.90;;;;;;5007032;28;20544;-80
2023/04/18 06:29:11;;;;;;;16.87;13.27;;;7.40;99.90;;;;;;5009820;28;20052;-81
2023/04/18 06:31:37;;;;;;;18.43;12.63;;;7.50;99.90;;;;;;4995567;28;20042;-80
2023/04/18 06:34:03;;;;;;;16.50;13.00;;;7.50;99.90;;;;;;5022059;28;20041;-80
2023/04/18 06:36:28;;;;;;;18.53;13.17;;;7.60;99.90;;;;;;5031762;28;20400;-81
2023/04/18 06:38:54;;;;;;;18.43;12.63;;;7.60;99.90;;;;;;5013803;28;20051;-80
2023/04/18 06:41:20;;;;;;;19.40;12.83;;;7.60;99.90;;;;;;5009717;28;20458;-80
2023/04/18 06:43:45;;;;;;;16.87;11.93;;;7.70;99.90;;;;;;5031540;28;20107;-81
2023/04/18 06:46:11;;;;;;;16.77;12.63;;;7.70;99.90;;;;;;5031783;28;20039;-80
2023/04/18 06:48:37;;;;;;;16.53;12.13;;;7.80;99.90;;;;;;5030376;28;20045;-80
2023/04/18 06:51:02;;;;;;;13.50;11.13;;;7.80;99.90;;;;;;5012589;28;20095;-80
2023/04/18 06:53:29;;;;;;;17.67;12.00;;;7.90;99.90;;;;;;5014595;28;20045;-79
2023/04/18 06:55:54;;;;;;;17.00;12.07;;;7.90;99.90;;;;;;5005314;28;20061;-80
2023/04/18 06:58:20;;;;;;;16.60;11.80;;;8.00;99.90;;;;;;5008106;28;20132;-80
2023/04/18 07:00:50;;;;;;;16.03;11.27;;;8.00;99.90;;;;;;5029812;28;20045;-80
2023/04/18 07:03:16;;;;;;;18.47;11.70;;;8.10;99.90;;;;;;5030377;28;20044;-80
2023/04/18 07:05:42;;;;;;;15.67;11.00;;;8.10;99.90;;;;;;5014191;28;20041;-80
2023/04/18 07:08:07;;;;;;;14.80;11.07;;;8.20;99.90;;;;;;5013635;28;20042;-80
2023/04/18 07:10:33;;;;;;;14.43;11.20;;;8.20;99.90;;;;;;5027109;28;20084;-80
2023/04/18 07:12:59;;;;;;;14.33;10.83;;;8.20;99.90;;;;;;4989829;28;20056;-80
2023/04/18 07:15:24;;;;;;;12.83;10.90;;;8.30;99.90;;;;;;5012076;28;20064;-79
2023/04/18 07:17:50;;;;;;;14.80;10.47;;;8.40;99.90;;;;;;5028743;28;20094;-81
2023/04/18 07:20:16;;;;;;;14.03;10.90;;;8.50;99.90;;;;;;5022582;28;20134;-80
2023/04/18 07:22:41;;;;;;;14.50;10.97;;;8.60;99.90;;;;;;5012370;28;20044;-80
2023/04/18 07:25:08;;;;;;;12.93;10.10;;;8.60;99.90;;;;;;5012419;28;20036;-80
2023/04/18 07:27:35;;;;;;;15.50;10.70;;;8.70;99.90;;;;;;5012039;28;20508;-80
2023/04/18 07:30:01;;;;;;;16.40;11.10;;;8.80;99.90;;;;;;5027601;28;20041;-81
2023/04/18 07:32:27;;;;;;;13.53;10.67;;;9.10;99.90;;;;;;5031222;28;20041;-81
2023/04/18 07:34:53;;;;;;;14.00;10.30;;;9.30;99.90;;;;;;5030910;28;20397;-80
2023/04/18 07:37:20;;;;;;;13.00;9.97;;;9.40;99.90;;;;;;5017406;28;20042;-81
2023/04/18 07:39:50;;;;;;;13.27;10.23;;;9.40;99.90;;;;;;5009912;28;20120;-80
2023/04/18 07:42:16;;;;;;;15.97;9.90;;;9.40;99.90;;;;;;5016191;28;20041;-80
2023/04/18 07:44:42;;;;;;;14.17;10.03;;;9.40;99.90;;;;;;5010959;28;20091;-80
2023/04/18 07:47:11;;;;;;;14.70;9.90;;;9.50;99.90;;;;;;5033866;28;20052;-80
2023/04/18 07:49:37;;;;;;;11.27;10.03;;;9.50;99.90;;;;;;5034382;28;20049;-80
2023/04/18 07:52:03;;;;;;;13.17;10.10;;;9.60;99.90;;;;;;5017913;28;20037;-80
2023/04/18 07:54:29;;;;;;;15.80;10.67;;;9.60;99.90;;;;;;5011528;28;20046;-81
2023/04/18 07:56:55;;;;;;;15.60;10.10;;;9.70;99.90;;;;;;5032105;28;20103;-81
2023/04/18 07:59:21;;;;;;;17.03;10.70;;;9.70;99.90;;;;;;5018306;28;20037;-81
2023/04/18 08:01:47;;;;;;;13.57;10.47;;;9.70;99.90;;;;;;5034554;28;20041;-81
2023/04/18 08:04:13;;;;;;;13.70;10.23;;;9.60;99.90;;;;;;5018774;28;20053;-81
2023/04/18 08:06:39;;;;;;;15.20;11.00;;;9.60;99.90;;;;;;5007238;28;20068;-80
2023/04/18 08:09:05;;;;;;;14.93;11.17;;;9.60;99.90;;;;;;5004055;28;20045;-80
2023/04/18 08:11:34;;;;;;;14.53;10.67;;;9.70;99.90;;;;;;5034027;28;20045;-80
2023/04/18 08:14:00;;;;;;;12.20;10.00;;;9.80;99.90;;;;;;5033901;28;20037;-80
2023/04/18 08:16:26;;;;;;;16.43;10.73;;;9.80;99.90;;;;;;5032406;28;20046;-81
2023/04/18 08:18:51;;;;;;;14.00;9.83;;;9.90;99.90;;;;;;5014565;28;20029;-81
2023/04/18 08:21:18;;;;;;;12.73;9.93;;;9.90;99.90;;;;;;5017435;28;20033;-81
2023/04/18 08:23:45;;;;;;;14.83;11.10;;;10.00;99.90;;;;;;5004125;28;20374;-81
2023/04/18 08:26:10;;;;;;;16.60;10.50;;;10.00;99.90;;;;;;5002739;28;20053;-81
2023/04/18 08:28:36;;;;;;;15.83;10.90;;;10.10;99.90;;;;;;5017012;28;20558;-81
2023/04/18 08:31:02;;;;;;;14.80;10.30;;;10.20;99.90;;;;;;5031733;28;20054;-81
2023/04/18 08:33:28;;;;;;;15.40;10.50;;;10.20;99.90;;;;;;4994114;28;20374;-81
2023/04/18 08:35:54;;;;;;;13.80;10.13;;;10.20;99.90;;;;;;5034076;28;20108;-81
2023/04/18 08:38:20;;;;;;;11.67;9.87;;;10.20;99.90;;;;;;5033596;28;20073;-81
2023/04/18 08:40:46;;;;;;;13.67;10.27;;;10.20;99.90;;;;;;5033712;28;20041;-81
2023/04/18 08:43:13;;;;;;;13.37;9.93;;;10.30;99.90;;;;;;5033556;28;20045;-80
2023/04/18 08:45:43;;;;;;;11.80;9.90;;;10.50;99.90;;;;;;5017694;28;20048;-80
2023/04/18 08:48:13;;;;;;;12.90;10.20;;;10.70;99.90;;;;;;5016943;28;20034;-81
2023/04/18 08:50:40;;;;;;;12.13;9.60;;;11.10;99.90;;;;;;5033756;28;20536;-81
2023/04/18 08:53:05;;;;;;;12.40;9.80;;;11.10;99.90;;;;;;5033057;28;20076;-81
2023/04/18 08:55:32;;;;;;;15.23;9.97;;;11.10;99.90;;;;;;5021697;28;20474;-81
2023/04/18 08:57:58;;;;;;;12.63;9.23;;;11.20;99.90;;;;;;5006595;28;20046;-80
2023/04/18 09:00:24;;;;;;;16.53;10.00;;;11.40;99.90;;;;;;5005117;28;20041;-81
2023/04/18 09:02:55;;;;;;;12.80;9.50;;;11.40;99.90;;;;;;5017064;28;20038;-81
2023/04/18 09:05:23;;;;;;;11.27;9.00;;;11.60;99.90;;;;;;5017244;28;20044;-81
2023/04/18 09:07:51;;;;;;;12.87;9.27;;;11.50;99.90;;;;;;5016884;28;20045;-81
2023/04/18 09:10:47;;;;;;;12.53;9.10;;;11.70;99.90;;;;;;5022068;28;20408;-81
2023/04/18 09:13:12;;;;;;;11.23;9.13;;;11.60;99.90;;;;;;5019920;28;20056;-80
2023/04/18 09:15:39;;;;;;;13.03;9.23;;;11.70;99.90;;;;;;4981740;28;20042;-81
2023/04/18 09:18:09;;;;;;;10.13;8.50;;;12.00;99.90;;;;;;5030241;28;20044;-81
2023/04/18 09:20:40;;;;;;;10.03;8.10;;;12.00;99.90;;;;;;5028203;28;20057;-80
2023/04/18 09:23:13;;;;;;;10.17;8.43;;;11.60;99.90;;;;;;5033017;28;20045;-80
2023/04/18 09:25:43;;;;;;;11.90;8.20;;;11.40;99.90;;;;;;5020231;28;20038;-81
2023/04/18 09:28:23;;;;;;;9.77;8.20;;;11.50;99.90;;;;;;4999693;28;20050;-81
2023/04/18 09:30:51;;;;;;;11.80;8.73;;;11.70;99.90;;;;;;5031809;28;20045;-80
2023/04/18 09:33:16;;;;;;;13.93;9.10;;;11.90;99.90;;;;;;4992831;28;20053;-80
2023/04/18 09:35:42;;;;;;;10.60;8.43;;;12.20;99.90;;;;;;5027683;28;20045;-81
2023/04/18 09:38:08;;;;;;;10.70;8.90;;;12.40;99.90;;;;;;5023031;28;20125;-80
2023/04/18 09:40:34;;;;;;;11.17;8.77;;;12.60;99.90;;;;;;5013971;28;20079;-80
2023/04/18 09:43:15;;;;;;;10.93;8.93;;;12.70;99.90;;;;;;5020004;28;20037;-80
2023/04/18 09:45:41;;;;;;;10.03;8.97;;;12.70;99.90;;;;;;5031673;28;20806;-78
2023/04/18 09:48:07;;;;;;;10.83;8.80;;;12.70;99.90;;;;;;5015374;28;20045;-80
2023/04/18 09:50:34;;;;;;;10.87;8.40;;;12.70;99.90;;;;;;5031999;28;20038;-81
2023/04/18 09:53:00;;;;;;;10.63;8.60;;;12.90;99.90;;;;;;5032505;28;20118;-80
2023/04/18 09:55:27;;;;;;;10.43;8.40;;;13.10;99.90;;;;;;5015726;28;20057;-81
2023/04/18 09:57:53;;;;;;;11.17;7.90;;;13.00;99.90;;;;;;5024927;28;20041;-81
2023/04/18 10:00:25;;;;;;;10.50;8.30;;;13.00;99.90;;;;;;5015360;28;20073;-81
2023/04/18 10:03:08;;;;;;;11.88;8.10;;;12.90;99.90;;;;;;4994994;28;20080;-81
2023/04/18 10:05:35;;;;;;;10.77;8.20;;;13.10;99.90;;;;;;4994754;28;20041;-80
2023/04/18 10:08:02;;;;;;;10.73;7.43;;;13.20;99.90;;;;;;4983451;28;20133;-81
2023/04/18 10:10:28;;;;;;;11.32;8.90;;;13.40;99.90;;;;;;5012075;28;20037;-80
2023/04/18 10:12:56;;;;;;;11.27;7.72;;;13.50;99.90;;;;;;5017319;28;20448;-81
2023/04/18 10:15:25;;;;;;;9.40;8.15;;;13.20;99.90;;;;;;5029292;28;20470;-81
2023/04/18 10:17:58;;;;;;;11.85;7.93;;;13.10;99.90;;;;;;5010384;28;20034;-80
2023/04/18 10:20:26;;;;;;;11.05;8.25;;;13.30;99.90;;;;;;4992289;28;20088;-81
2023/04/18 10:22:53;;;;;;;9.85;7.32;;;13.40;99.90;;;;;;5011329;28;20057;-80
2023/04/18 10:25:37;;;;;;;9.15;7.18;;;13.50;99.90;;;;;;5015027;28;20115;-80
2023/04/18 10:28:04;;;;;;;9.70;7.85;;;13.40;99.90;;;;;;5031724;28;20037;-81
2023/04/18 10:30:39;;;;;;;7.90;7.10;;;13.40;99.90;;;;;;5025948;28;20045;-81
2023/04/18 10:33:21;;;;;;;11.10;7.97;;;13.40;99.90;;;;;;5022573;28;20045;-80
2023/04/18 10:35:57;;;;;;;9.18;7.70;;;13.50;99.90;;;;;;5007694;28;20077;-81
2023/04/18 10:38:24;;;;;;;8.93;7.43;;;13.70;99.90;;;;;;5005367;28;20045;-81
2023/04/18 10:40:50;;;;;;;8.52;7.47;;;13.90;99.90;;;;;;5014171;28;20041;-80
2023/04/18 10:43:15;;;;;;;8.80;7.35;;;14.00;99.90;;;;;;5020042;28;20038;-81
2023/04/18 10:45:41;;;;;;;9.27;8.00;;;14.10;99.90;;;;;;5016836;28;20042;-81
2023/04/18 10:48:34;;;;;;;8.82;7.90;;;14.20;99.90;;;;;;5031334;28;20481;-81
2023/04/18 10:51:17;;;;;;;8.50;7.57;;;14.20;99.90;;;;;;4980695;28;20471;-81
2023/04/18 10:53:49;;;;;;;8.65;7.78;;;14.10;99.90;;;;;;5015959;28;20037;-81
2023/04/18 10:56:15;;;;;;;10.68;8.55;;;14.20;99.90;;;;;;5017625;28;20058;-82
2023/04/18 10:58:46;;;;;;;11.20;8.68;;;14.30;99.90;;;;;;5020453;28;20041;-81
2023/04/18 11:01:14;;;;;;;10.75;8.73;;;14.20;99.90;;;;;;5016843;28;20073;-81
2023/04/18 11:03:40;;;;;;;11.18;9.10;;;14.20;99.90;;;;;;5015346;28;20053;-79
2023/04/18 11:06:06;;;;;;;10.40;8.90;;;14.20;99.90;;;;;;4994400;28;20060;-80
2023/04/18 11:08:31;;;;;;;12.70;9.27;;;13.90;99.90;;;;;;4994402;28;20038;-81
2023/04/18 11:10:58;;;;;;;11.70;10.05;;;13.90;99.90;;;;;;5002613;28;20041;-81
2023/04/18 11:13:24;;;;;;;11.57;9.35;;;14.10;99.90;;;;;;5006280;28;20394;-81
2023/04/18 11:15:49;;;;;;;11.65;9.48;;;14.20;99.90;;;;;;5013288;28;20042;-81
2023/04/18 11:18:15;;;;;;;11.85;9.88;;;14.20;99.90;;;;;;5019831;28;20040;-81
2023/04/18 11:20:49;;;;;;;13.30;10.48;;;14.40;99.90;;;;;;5016070;28;20048;-81
2023/04/18 11:23:21;;;;;;;13.35;10.27;;;14.50;99.90;;;;;;5001450;28;20037;-81
2023/04/18 11:25:49;;;;;;;;;;;14.40;99.90;;;;;;5007987;28;20042;-81
2023/04/18 11:28:21;;;;;;;13.27;10.20;;;14.40;99.90;;;;;;5014328;28;19921;-81
2023/04/18 11:30:47;;;;;;;14.80;9.93;;;14.30;99.90;;;;;;5014219;28;20042;-80
2023/04/18 11:33:13;;;;;;;13.35;9.93;;;14.20;99.90;;;;;;5005731;28;20042;-81
2023/04/18 11:35:41;;;;;;;12.65;10.75;;;14.10;99.90;;;;;;5031079;28;20443;-80
2023/04/18 11:38:09;;;;;;;11.70;10.35;;;14.10;99.90;;;;;;5017935;28;20046;-81
2023/04/18 11:40:35;;;;;;;12.73;9.90;;;14.30;99.90;;;;;;5017985;28;20087;-81
2023/04/18 11:43:02;;;;;;;15.35;10.82;;;14.40;99.90;;;;;;5005723;28;20477;-81
2023/04/18 11:45:28;;;;;;;11.68;9.55;;;14.40;99.90;;;;;;5023814;28;20141;-81
2023/04/18 11:47:58;;;;;;;12.75;10.98;;;14.50;99.90;;;;;;5014255;28;20137;-81
2023/04/18 11:50:25;;;;;;;13.65;11.02;;;14.50;99.00;;;;;;5010996;28;20054;-81
2023/04/18 11:52:52;;;;;;;12.50;9.95;;;14.60;99.90;;;;;;4990989;28;20034;-81
2023/04/18 11:55:23;;;;;;;13.10;10.50;;;14.80;99.90;;;;;;5014239;28;20084;-81
2023/04/18 11:57:57;;;;;;;13.32;10.95;;;14.90;96.60;;;;;;5014787;28;20034;-81
2023/04/18 12:00:49;;;;;;;15.50;11.15;;;15.00;96.40;;;;;;5010791;28;20041;-82
2023/04/18 12:03:15;;;;;;;13.68;10.98;;;14.80;92.30;;;;;;5009931;28;20060;-81
2023/04/18 12:05:41;;;;;;;16.50;12.27;;;14.70;95.20;;;;;;4985558;28;20052;-81
2023/04/18 12:08:18;;;;;;;16.48;11.77;;;14.70;99.90;;;;;;4993353;28;20050;-81
2023/04/18 12:10:49;;;;;;;13.77;11.75;;;14.70;96.80;;;;;;5008394;28;20046;-81
2023/04/18 12:13:15;;;;;;;15.77;11.77;;;15.00;99.90;;;;;;5027555;28;20041;-82
2023/04/18 12:15:43;;;;;;;12.60;11.30;;;15.00;94.30;;;;;;5023903;28;20117;-81
2023/04/18 12:18:15;;;;;;;15.27;12.10;;;15.10;92.70;;;;;;5008004;28;20045;-81
2023/04/18 12:20:48;;;;;;;13.23;11.25;;;15.20;93.50;;;;;;5017581;28;20045;-81
2023/04/18 12:23:33;;;;;;;14.13;11.63;;;15.20;93.30;;;;;;5028610;28;20573;-81
2023/04/18 12:26:13;;;;;;;13.52;11.52;;;15.30;91.50;;;;;;5006768;28;20049;-82
2023/04/18 12:28:43;;;;;;;11.23;10.02;;;15.30;92.10;;;;;;5028825;28;20060;-81
2023/04/18 12:31:08;;;;;;;11.80;9.68;;;15.10;92.60;;;;;;5016223;28;20062;-81
2023/04/18 12:33:35;;;;;;;12.63;10.50;;;15.10;94.00;;;;;;5000801;28;20042;-81
2023/04/18 12:36:01;;;;;;;13.20;10.05;;;15.00;92.30;;;;;;5013440;28;20127;-82